Time;durP1;ratioP1;P1;durP2;ratioP2;P2;SDS_P1;SDS_P2;PMS_P1;PMS_P2;Temp;Humidity;BMP_temperature;BMP_pressure;BME280_temperature;BME280_humidity;BME280_pressure;Samples;Min_cycle;Max_cycle;Signal;HPM_P1;HPM_P2
2024/01/24 00:00:34;;;;;;;6.30;4.40;;;;;;;1.52;100.00;62148.81;4970253;28;20217;-83
2024/01/24 00:03:03;;;;;;;2.33;2.22;;;;;;;1.41;100.00;62140.53;4971843;29;20208;-83
2024/01/24 00:05:30;;;;;;;3.85;2.42;;;;;;;1.52;100.00;62154.31;4972785;28;20224;-83
2024/01/24 00:07:57;;;;;;;2.92;2.72;;;;;;;1.52;100.00;62154.31;4975635;29;20215;-83
2024/01/24 00:10:26;;;;;;;4.70;2.92;;;;;;;1.45;100.00;62147.13;4975842;28;20236;-81
2024/01/24 00:12:54;;;;;;;3.03;2.70;;;;;;;1.59;100.00;62161.00;4975188;28;20211;-83
2024/01/24 00:15:21;;;;;;;3.67;2.50;;;;;;;1.64;100.00;62166.13;4977043;28;20255;-83
2024/01/24 00:17:48;;;;;;;2.65;2.45;;;;;;;1.48;100.00;62152.75;4976573;29;20212;-85
2024/01/24 00:20:17;;;;;;;4.95;3.10;;;;;;;1.70;100.00;62177.81;4976612;28;20292;-84
2024/01/24 00:22:44;;;;;;;6.53;2.65;;;;;;;1.56;100.00;62160.44;4973430;29;20192;-83
2024/01/24 00:25:11;;;;;;;3.53;3.20;;;;;;;1.78;100.00;62185.50;4976853;28;20228;-82
2024/01/24 00:27:38;;;;;;;3.33;2.13;;;;;;;1.75;100.00;62179.94;4975197;29;20276;-83
2024/01/24 00:30:07;;;;;;;6.20;2.50;;;;;;;1.66;100.00;62166.19;4975952;28;20247;-83
2024/01/24 00:32:34;;;;;;;3.67;3.33;;;;;;;1.80;100.00;62185.06;4960536;29;20221;-85
2024/01/24 00:35:01;;;;;;;6.53;2.83;;;;;;;1.71;100.00;62173.31;4965775;28;20221;-82
2024/01/24 00:37:30;;;;;;;3.53;2.50;;;;;;;1.74;100.00;62176.91;4975116;28;20254;-83
2024/01/24 00:39:57;;;;;;;6.88;2.53;;;;;;;1.73;100.00;62173.38;4973238;28;20232;-83
2024/01/24 00:42:24;;;;;;;7.00;3.17;;;;;;;1.80;100.00;62183.06;4975349;29;20200;-82
2024/01/24 00:44:51;;;;;;;4.50;2.95;;;;;;;1.78;100.00;62180.50;4976529;28;20235;-85
2024/01/24 00:47:18;;;;;;;6.07;2.97;;;;;;;1.75;100.00;62172.91;4975731;28;20201;-83
2024/01/24 00:49:45;;;;;;;3.42;3.10;;;;;;;1.68;100.00;62170.22;4972668;28;20239;-84
2024/01/24 00:52:14;;;;;;;4.13;3.13;;;;;;;1.65;100.00;62164.66;4974051;29;20228;-84
2024/01/24 00:54:42;;;;;;;3.83;3.40;;;;;;;1.59;100.00;62161.50;4976805;28;20252;-82
2024/01/24 00:57:09;;;;;;;4.47;3.35;;;;;;;1.55;100.00;62154.91;4973049;29;20639;-83
2024/01/24 00:59:36;;;;;;;2.85;2.65;;;;;;;1.54;100.00;62156.38;4972521;29;20291;-83
2024/01/24 01:02:03;;;;;;;5.07;2.97;;;;;;;1.51;100.00;62147.78;4975127;28;20220;-83
2024/01/24 01:04:30;;;;;;;3.83;3.45;;;;;;;1.48;100.00;62152.22;4975220;29;20209;-83
2024/01/24 01:06:57;;;;;;;7.60;3.25;;;;;;;1.50;100.00;62151.78;4975881;28;20201;-83
2024/01/24 01:09:24;;;;;;;3.50;2.45;;;;;;;1.45;100.00;62144.63;4973096;28;20421;-83
2024/01/24 01:11:53;;;;;;;4.75;3.58;;;;;;;1.42;100.00;62143.56;4978695;28;20238;-83
2024/01/24 01:14:19;;;;;;;4.50;3.72;;;;;;;1.35;100.00;62141.91;4967779;28;20232;-83
2024/01/24 01:16:46;;;;;;;5.20;3.05;;;;;;;1.34;100.00;62130.34;4979405;28;20208;-83
2024/01/24 01:19:13;;;;;;;4.22;3.83;;;;;;;1.36;100.00;62132.91;4975183;29;20209;-82
2024/01/24 01:21:40;;;;;;;3.92;3.25;;;;;;;1.29;100.00;62125.72;4969440;29;20252;-83
2024/01/24 01:24:08;;;;;;;4.47;3.42;;;;;;;1.25;100.00;62126.63;4986514;28;20200;-79
2024/01/24 01:26:35;;;;;;;4.38;3.33;;;;;;;1.20;100.00;62124.00;4972186;29;20231;-82
2024/01/24 01:29:03;;;;;;;6.65;3.55;;;;;;;1.18;100.00;62117.47;4963485;29;20212;-79
2024/01/24 01:31:30;;;;;;;6.82;3.85;;;;;;;1.25;100.00;62126.63;4958038;29;20243;-84
2024/01/24 01:33:57;;;;;;;3.03;2.65;;;;;;;1.26;100.00;62124.63;4978228;28;20208;-82
2024/01/24 01:36:24;;;;;;;3.63;3.30;;;;;;;1.26;100.00;62127.66;4973095;29;20224;-85
2024/01/24 01:38:51;;;;;;;5.65;4.07;;;;;;;1.19;100.00;62123.00;4972482;29;20192;-81
2024/01/24 01:41:18;;;;;;;3.03;2.83;;;;;;;1.22;100.00;62123.56;4957929;29;20237;-80
2024/01/24 01:43:45;;;;;;;5.25;2.88;;;;;;;1.29;100.00;62130.22;4965664;29;20205;-82
2024/01/24 01:46:17;;;;;;;6.45;4.43;;;;;;;1.31;100.00;62132.28;4958728;28;20403;-81
2024/01/24 01:48:44;;;;;;;5.35;3.70;;;;;;;1.30;100.00;62129.25;4971476;29;20205;-82
2024/01/24 01:51:11;;;;;;;3.90;3.42;;;;;;;1.29;100.00;62130.22;4974339;28;20259;-83
2024/01/24 01:53:39;;;;;;;3.45;3.15;;;;;;;1.34;100.00;62135.88;4972480;28;20256;-79
2024/01/24 01:56:08;;;;;;;3.78;3.47;;;;;;;1.27;100.00;62128.69;4971996;29;20225;-79
2024/01/24 01:58:35;;;;;;;4.68;3.50;;;;;;;1.34;100.00;62132.84;4970660;29;20243;-80
2024/01/24 02:01:02;;;;;;;4.07;3.40;;;;;;;1.41;100.00;62145.03;4972969;29;20289;-81
2024/01/24 02:03:30;;;;;;;4.32;3.17;;;;;;;1.32;100.00;62133.81;4970635;29;20197;-80
2024/01/24 02:05:57;;;;;;;6.45;3.70;;;;;;;1.30;100.00;62133.75;4970540;28;20249;-81
2024/01/24 02:08:24;;;;;;;5.72;4.47;;;;;;;1.27;100.00;62126.19;4957982;29;20268;-82
2024/01/24 02:10:51;;;;;;;5.30;3.13;;;;;;;1.22;100.00;62128.56;4973277;29;20243;-82
2024/01/24 02:13:18;;;;;;;8.57;3.97;;;;;;;1.32;100.00;62133.81;4970126;28;20284;-81
2024/01/24 02:15:45;;;;;;;5.40;3.63;;;;;;;1.36;100.00;62134.91;4972591;28;20228;-81
2024/01/24 02:18:12;;;;;;;3.22;2.92;;;;;;;1.37;100.00;62138.94;4959712;29;20208;-79
2024/01/24 02:20:40;;;;;;;7.32;3.55;;;;;;;1.36;100.00;62134.91;4970996;28;20571;-81
2024/01/24 02:23:09;;;;;;;3.97;3.30;;;;;;;1.41;100.00;62142.53;4973399;28;20204;-82
2024/01/24 02:25:37;;;;;;;3.85;3.35;;;;;;;1.37;100.00;62141.44;4957092;29;20240;-81
2024/01/24 02:28:05;;;;;;;5.97;4.25;;;;;;;1.39;100.00;62137.97;4976999;28;20276;-80
2024/01/24 02:30:32;;;;;;;5.20;3.63;;;;;;;1.38;100.00;62139.97;4964619;29;20236;-81
2024/01/24 02:32:59;;;;;;;3.85;3.55;;;;;;;1.34;100.00;62135.34;4973270;28;20218;-80
2024/01/24 02:35:27;;;;;;;5.00;3.53;;;;;;;1.29;100.00;62132.72;4961968;29;20225;-78
2024/01/24 02:37:54;;;;;;;4.72;4.00;;;;;;;1.29;100.00;62127.72;4965568;29;20224;-80
2024/01/24 02:40:21;;;;;;;3.88;3.55;;;;;;;1.14;100.00;62115.84;4966476;28;20228;-81
2024/01/24 02:42:49;;;;;;;5.35;4.20;;;;;;;1.07;100.00;62108.66;4970469;29;20562;-81
2024/01/24 02:45:17;;;;;;;10.20;4.57;;;;;;;1.26;100.00;62127.16;4971863;28;20410;-80
2024/01/24 02:47:43;;;;;;;7.68;4.60;;;;;;;1.22;100.00;62123.56;4958679;29;20224;-80
2024/01/24 02:50:12;;;;;;;7.00;4.70;;;;;;;1.27;100.00;62128.69;4958634;29;20244;-81
2024/01/24 02:52:38;;;;;;;6.28;4.68;;;;;;;1.24;100.00;62125.59;4969566;29;20205;-79
2024/01/24 02:55:07;;;;;;;4.45;3.72;;;;;;;1.16;100.00;62117.91;4969624;29;20224;-81
2024/01/24 02:57:34;;;;;;;5.65;4.30;;;;;;;1.26;100.00;62125.13;4966608;28;20208;-79
2024/01/24 03:00:02;;;;;;;3.70;3.45;;;;;;;1.26;100.00;62124.63;4962930;29;20217;-80
2024/01/24 03:02:29;;;;;;;3.72;3.38;;;;;;;1.26;100.00;62127.66;4972322;29;20204;-79
2024/01/24 03:04:56;;;;;;;5.55;4.00;;;;;;;1.35;100.00;62133.88;4968919;28;20227;-79
2024/01/24 03:07:23;;;;;;;5.20;4.03;;;;;;;1.38;100.00;62142.47;4968866;28;20220;-79
2024/01/24 03:09:50;;;;;;;4.47;3.78;;;;;;;1.36;100.00;62135.41;4957679;29;20248;-81
2024/01/24 03:12:17;;;;;;;3.58;2.80;;;;;;;1.37;100.00;62138.41;4977840;28;20204;-80
2024/01/24 03:14:44;;;;;;;4.97;3.63;;;;;;;1.33;100.00;62134.34;4969047;28;20255;-82
2024/01/24 03:17:13;;;;;;;8.43;5.20;;;;;;;1.34;100.00;62132.84;4971040;28;20205;-81
2024/01/24 03:19:40;;;;;;;7.35;4.30;;;;;;;1.29;100.00;62132.72;4973144;28;20276;-80
2024/01/24 03:22:07;;;;;;;7.95;4.95;;;;;;;1.34;100.00;62135.34;4969059;28;20216;-79
2024/01/24 03:24:33;;;;;;;8.27;5.35;;;;;;;1.28;100.00;62124.69;4970873;28;20525;-81
2024/01/24 03:27:00;;;;;;;6.60;4.47;;;;;;;1.27;100.00;62128.16;4970378;29;20215;-78
2024/01/24 03:29:27;;;;;;;4.95;3.40;;;;;;;1.23;100.00;62126.56;4960565;28;20221;-80
2024/01/24 03:31:54;;;;;;;5.25;4.20;;;;;;;1.20;100.00;62121.50;4964028;29;20267;-80
2024/01/24 03:34:24;;;;;;;7.30;4.78;;;;;;;1.24;100.00;62123.09;4972446;28;20232;-79
2024/01/24 03:36:51;;;;;;;4.65;4.13;;;;;;;1.17;100.00;62121.44;4972456;29;20266;-80
2024/01/24 03:39:18;;;;;;;8.43;4.47;;;;;;;1.18;100.00;62117.47;4964741;28;20561;-79
2024/01/24 03:41:45;;;;;;;5.85;4.38;;;;;;;1.20;100.00;62121.50;4972260;29;20279;-79
2024/01/24 03:44:12;;;;;;;6.13;4.25;;;;;;;1.18;100.00;62119.44;4964143;29;20197;-77
2024/01/24 03:46:39;;;;;;;6.40;4.65;;;;;;;1.21;100.00;62127.03;4971103;29;20376;-79
2024/01/24 03:49:06;;;;;;;6.35;4.68;;;;;;;1.15;100.00;62121.91;4971512;29;20228;-79
2024/01/24 03:51:35;;;;;;;6.90;4.15;;;;;;;1.11;100.00;62112.78;4975979;28;20232;-79
2024/01/24 03:54:02;;;;;;;5.45;3.78;;;;;;;1.17;100.00;62113.91;4969183;28;20193;-77
2024/01/24 03:56:29;;;;;;;5.75;4.30;;;;;;;1.08;100.00;62107.19;4971005;29;20337;-79
2024/01/24 03:58:56;;;;;;;6.10;4.40;;;;;;;1.13;100.00;62117.34;4972879;29;20217;-81
2024/01/24 04:01:23;;;;;;;4.82;3.45;;;;;;;1.15;100.00;62118.88;4971108;29;20208;-78
2024/01/24 04:03:50;;;;;;;4.20;3.83;;;;;;;1.14;100.00;62112.81;4961809;29;20208;-80
2024/01/24 04:06:17;;;;;;;6.22;4.15;;;;;;;1.14;100.00;62120.88;4966593;29;20250;-80
2024/01/24 04:08:46;;;;;;;4.82;4.30;;;;;;;0.97;100.00;62097.91;4972542;29;20201;-79
2024/01/24 04:11:12;;;;;;;5.38;3.97;;;;;;;1.11;100.00;62112.78;4976639;28;20283;-80
2024/01/24 04:13:42;;;;;;;4.57;3.72;;;;;;;1.10;100.00;62114.25;4972578;29;20205;-80
2024/01/24 04:16:09;;;;;;;6.95;3.70;;;;;;;1.01;100.00;62100.03;4973847;28;20229;-80
2024/01/24 04:18:36;;;;;;;5.40;3.90;;;;;;;1.07;100.00;62103.16;4972712;29;20208;-79
2024/01/24 04:21:03;;;;;;;5.72;3.90;;;;;;;0.93;100.00;62094.31;4973932;28;20253;-79
2024/01/24 04:23:30;;;;;;;6.65;4.68;;;;;;;1.02;100.00;62105.53;4958048;29;20201;-79
2024/01/24 04:25:58;;;;;;;6.28;4.97;;;;;;;1.00;100.00;62096.47;4973750;28;20280;-79
2024/01/24 04:28:26;;;;;;;7.53;4.50;;;;;;;0.98;100.00;62098.94;4974234;28;20213;-78
2024/01/24 04:30:53;;;;;;;8.90;5.10;;;;;;;0.94;100.00;62100.34;4973960;29;20242;-79
2024/01/24 04:33:20;;;;;;;5.35;4.53;;;;;;;0.90;100.00;62088.22;4978252;28;20208;-79
2024/01/24 04:35:47;;;;;;;5.38;4.13;;;;;;;0.91;100.00;62092.28;4972194;28;20236;-78
2024/01/24 04:38:14;;;;;;;4.00;3.38;;;;;;;0.94;100.00;62090.34;4972920;29;20204;-78
2024/01/24 04:40:41;;;;;;;6.30;3.60;;;;;;;0.88;100.00;62089.19;4966535;28;20224;-77
2024/01/24 04:43:09;;;;;;;6.80;4.72;;;;;;;0.86;100.00;62089.63;4969454;29;20302;-80
2024/01/24 04:45:36;;;;;;;5.72;4.80;;;;;;;0.90;100.00;62091.22;4972355;28;20428;-79
2024/01/24 04:48:04;;;;;;;5.25;4.25;;;;;;;0.93;100.00;62091.81;4955891;29;20209;-79
2024/01/24 04:50:31;;;;;;;5.80;4.28;;;;;;;0.88;100.00;62088.69;4971392;28;20213;-79
2024/01/24 04:52:59;;;;;;;4.22;3.80;;;;;;;0.88;100.00;62091.69;4967877;28;20271;-79
2024/01/24 04:55:25;;;;;;;5.18;4.13;;;;;;;0.84;100.00;62084.56;4972713;28;20221;-79
2024/01/24 04:57:52;;;;;;;6.18;3.97;;;;;;;0.86;100.00;62086.63;4977648;28;20197;-79
2024/01/24 05:00:21;;;;;;;6.82;4.70;;;;;;;0.84;100.00;62084.56;4975306;28;20225;-82
2024/01/24 05:02:48;;;;;;;5.68;4.57;;;;;;;0.83;100.00;62081.03;4969220;29;20295;-80
2024/01/24 05:05:15;;;;;;;7.00;4.50;;;;;;;0.80;100.00;62082.97;4968331;28;20229;-78
2024/01/24 05:07:42;;;;;;;6.43;4.50;;;;;;;0.80;100.00;62080.97;4972983;29;20204;-81
2024/01/24 05:10:10;;;;;;;7.68;5.22;;;;;;;0.76;100.00;62078.88;4968312;29;20248;-80
2024/01/24 05:12:36;;;;;;;8.50;5.10;;;;;;;0.81;100.00;62079.50;4971717;28;20232;-80
2024/01/24 05:15:04;;;;;;;8.15;4.57;;;;;;;0.79;100.00;62074.44;4972100;29;20224;-80
2024/01/24 05:17:33;;;;;;;7.35;5.00;;;;;;;0.82;100.00;62080.00;4978762;28;20274;-80
2024/01/24 05:20:00;;;;;;;7.20;4.32;;;;;;;0.79;100.00;62079.97;4964653;28;20224;-81
2024/01/24 05:22:27;;;;;;;5.35;4.85;;;;;;;0.80;100.00;62077.97;4974293;29;20216;-80
2024/01/24 05:24:54;;;;;;;4.85;4.05;;;;;;;0.81;100.00;62081.50;4972755;28;20236;-82
2024/01/24 05:27:22;;;;;;;8.82;4.85;;;;;;;0.85;100.00;62081.09;4973067;29;20462;-82
2024/01/24 05:29:49;;;;;;;5.00;4.18;;;;;;;0.79;100.00;62076.94;4975921;28;20288;-81
2024/01/24 05:32:15;;;;;;;5.97;4.85;;;;;;;0.80;100.00;62083.50;4972907;28;20427;-81
2024/01/24 05:34:44;;;;;;;5.53;3.97;;;;;;;0.83;100.00;62084.06;4980088;28;20238;-81
2024/01/24 05:37:11;;;;;;;6.40;4.93;;;;;;;0.78;100.00;62081.44;4976312;29;20200;-81
2024/01/24 05:39:38;;;;;;;11.00;5.53;;;;;;;0.73;100.00;62073.28;4973252;28;20471;-82
2024/01/24 05:42:05;;;;;;;6.10;3.92;;;;;;;0.79;100.00;62079.97;4964417;29;20201;-80
2024/01/24 05:44:32;;;;;;;6.80;4.32;;;;;;;0.89;100.00;62090.22;4954463;29;20217;-80
2024/01/24 05:46:59;;;;;;;5.28;4.80;;;;;;;0.88;100.00;62091.69;4963659;28;20208;-79
2024/01/24 05:49:26;;;;;;;4.38;3.35;;;;;;;0.81;100.00;62084.00;4958448;29;20269;-79
2024/01/24 05:51:54;;;;;;;5.47;4.47;;;;;;;1.03;100.00;62102.06;4965714;29;20228;-79
2024/01/24 05:54:22;;;;;;;8.35;4.65;;;;;;;1.05;100.00;62111.63;4970286;28;20224;-81
2024/01/24 05:56:49;;;;;;;6.28;4.47;;;;;;;1.09;100.00;62107.69;4953630;28;20209;-82
2024/01/24 05:59:16;;;;;;;4.10;3.70;;;;;;;1.16;100.00;62119.91;4972956;28;20550;-79
2024/01/24 06:01:43;;;;;;;5.32;4.30;;;;;;;1.18;100.00;62122.47;4973769;29;20235;-81
2024/01/24 06:04:10;;;;;;;7.25;4.25;;;;;;;1.21;100.00;62122.03;4972032;28;20235;-83
2024/01/24 06:06:37;;;;;;;4.82;4.13;;;;;;;1.17;100.00;62113.91;4971407;29;20306;-82
2024/01/24 06:09:05;;;;;;;5.63;4.43;;;;;;;1.21;100.00;62122.53;4970946;29;20239;-82
2024/01/24 06:11:32;;;;;;;7.25;5.00;;;;;;;1.16;100.00;62117.91;4964214;28;20470;-81
2024/01/24 06:13:59;;;;;;;6.00;4.38;;;;;;;1.26;100.00;62127.16;4982437;28;20371;-85
2024/01/24 06:16:26;;;;;;;5.55;4.50;;;;;;;1.34;100.00;62132.84;4960215;29;20213;-83
2024/01/24 06:18:53;;;;;;;5.47;4.32;;;;;;;1.34;100.00;62135.88;4965818;29;20255;-81
2024/01/24 06:21:20;;;;;;;9.25;4.57;;;;;;;1.22;100.00;62125.53;4971397;28;20213;-83
2024/01/24 06:23:47;;;;;;;9.13;4.30;;;;;;;1.26;100.00;62127.66;4967008;29;20205;-83
2024/01/24 06:26:15;;;;;;;3.97;3.47;;;;;;;1.34;100.00;62135.88;4960254;28;20236;-80
2024/01/24 06:28:42;;;;;;;8.05;4.03;;;;;;;1.33;100.00;62131.81;4974233;29;20525;-82
2024/01/24 06:31:09;;;;;;;7.72;4.32;;;;;;;1.29;100.00;62128.22;4971233;28;20236;-83
2024/01/24 06:33:36;;;;;;;4.32;3.35;;;;;;;1.29;100.00;62127.72;4975297;28;20251;-83
2024/01/24 06:36:04;;;;;;;5.78;4.95;;;;;;;1.27;100.00;62128.16;4973926;28;20233;-81
2024/01/24 06:38:31;;;;;;;4.53;3.40;;;;;;;1.26;100.00;62129.66;4962236;29;20290;-83
2024/01/24 06:40:58;;;;;;;5.47;4.97;;;;;;;1.28;100.00;62129.19;4969169;28;20221;-82
2024/01/24 06:43:26;;;;;;;6.25;3.97;;;;;;;1.27;100.00;62128.16;4968125;28;20217;-84
2024/01/24 06:45:53;;;;;;;6.97;4.63;;;;;;;1.27;100.00;62128.69;4963655;28;20204;-82
2024/01/24 06:48:20;;;;;;;6.82;4.22;;;;;;;1.22;100.00;62120.53;4969926;28;20177;-79
2024/01/24 06:50:48;;;;;;;3.20;2.90;;;;;;;1.24;100.00;62123.09;4977364;28;20268;-82
2024/01/24 06:53:14;;;;;;;7.47;4.13;;;;;;;1.26;100.00;62132.16;4966185;28;20248;-81
2024/01/24 06:55:41;;;;;;;6.85;4.63;;;;;;;1.21;100.00;62124.53;4959374;28;20221;-82
2024/01/24 06:58:09;;;;;;;4.90;4.20;;;;;;;1.25;100.00;62126.09;4965040;29;20220;-83
2024/01/24 07:00:37;;;;;;;4.90;4.22;;;;;;;1.17;100.00;62115.91;4972261;29;20229;-86
2024/01/24 07:03:05;;;;;;;6.47;4.53;;;;;;;1.08;100.00;62109.19;4979004;28;20220;-84
2024/01/24 07:05:32;;;;;;;8.05;4.38;;;;;;;1.17;100.00;62118.44;4966174;28;20225;-83
2024/01/24 07:07:59;;;;;;;4.72;3.65;;;;;;;1.50;100.00;62149.75;4960811;28;20393;-85
2024/01/24 07:10:26;;;;;;;4.22;3.55;;;;;;;1.87;100.00;62187.22;4959519;28;20273;-84
2024/01/24 07:12:55;;;;;;;17.38;3.47;;;;;;;2.32;100.00;62233.97;4968768;29;20228;-84
2024/01/24 07:15:22;;;;;;;3.75;3.17;;;;;;;2.56;100.00;62260.06;4955912;29;20224;-82
2024/01/24 07:17:51;;;;;;;5.18;3.88;;;;;;;2.77;100.00;62279.16;4969737;28;20204;-87
2024/01/24 07:20:18;;;;;;;3.40;3.10;;;;;;;2.71;100.00;62278.03;4993564;28;20227;-83
2024/01/24 07:22:45;;;;;;;4.40;4.00;;;;;;;2.30;100.00;62233.88;4974717;28;20264;-87
2024/01/24 07:25:13;;;;;;;8.55;3.78;;;;;;;2.32;100.00;62235.94;4975842;28;20220;-86
2024/01/24 07:27:40;;;;;;;6.07;4.03;;;;;;;2.44;100.00;62250.78;4975610;29;20513;-84
2024/01/24 07:30:09;;;;;;;4.47;4.07;;;;;;;1.95;100.00;62200.97;4976316;28;20227;-87
2024/01/24 07:32:39;;;;;;;5.45;3.45;;;;;;;2.10;100.00;62210.84;4975666;29;20352;-84
2024/01/24 07:35:10;;;;;;;4.50;3.90;;;;;;;2.15;100.00;62215.97;4974133;28;20251;-86
2024/01/24 07:37:38;;;;;;;3.38;3.08;;;;;;;2.05;100.00;62205.72;4972968;29;20204;-87
2024/01/24 07:40:07;;;;;;;4.32;3.92;;;;;;;2.03;100.00;62211.19;4974054;29;20280;-85
2024/01/24 07:42:34;;;;;;;4.68;3.70;;;;;;;1.77;100.00;62185.00;4975892;28;20201;-88
2024/01/24 07:45:04;;;;;;;7.25;3.38;;;;;;;1.79;100.00;62179.53;4976741;28;20220;-86
2024/01/24 07:47:34;;;;;;;4.15;3.75;;;;;;;1.62;100.00;62167.13;4967049;29;20197;-85
2024/01/24 07:50:03;;;;;;;5.28;3.85;;;;;;;1.83;100.00;62185.66;4967255;28;20244;-86
2024/01/24 07:52:31;;;;;;;5.90;4.18;;;;;;;1.76;100.00;62178.47;4974324;29;20242;-85
2024/01/24 07:54:58;;;;;;;5.22;3.78;;;;;;;2.00;100.00;62203.09;4973850;28;20248;-86
2024/01/24 07:57:26;;;;;;;3.45;3.15;;;;;;;1.87;100.00;62189.75;4970021;28;20189;-86
2024/01/24 07:59:53;;;;;;;3.42;3.08;;;;;;;1.99;100.00;62202.56;4968454;29;20271;-85
2024/01/24 08:02:20;;;;;;;6.50;3.70;;;;;;;1.88;100.00;62190.78;4966839;28;20240;-88
2024/01/24 08:04:47;;;;;;;5.90;3.53;;;;;;;2.00;100.00;62208.13;4972443;28;20284;-86
2024/01/24 08:07:17;;;;;;;9.43;4.22;;;;;;;2.03;100.00;62211.72;4962232;29;20252;-88
2024/01/24 08:09:45;;;;;;;6.32;3.33;;;;;;;2.00;100.00;62206.09;4973129;29;20243;-85
2024/01/24 08:12:12;;;;;;;6.72;4.22;;;;;;;2.09;100.00;62219.84;4968695;29;20240;-84
2024/01/24 08:14:39;;;;;;;4.65;3.65;;;;;;;2.10;100.00;62218.91;4975013;29;20452;-84
2024/01/24 08:17:08;;;;;;;4.55;3.45;;;;;;;2.35;100.00;62239.53;4970622;28;20208;-81
2024/01/24 08:19:34;;;;;;;5.38;3.42;;;;;;;2.61;100.00;62268.25;4953092;29;20217;-85
2024/01/24 08:22:03;;;;;;;6.50;4.10;;;;;;;2.62;100.00;62268.75;4973102;29;20228;-87
2024/01/24 08:24:30;;;;;;;6.28;5.05;;;;;;;2.64;100.00;62270.81;4963424;29;20243;-85
2024/01/24 08:26:59;;;;;;;9.73;4.13;;;;;;;2.48;100.00;62252.38;4976104;28;20236;-84
2024/01/24 08:29:27;;;;;;;4.88;3.55;;;;;;;2.20;100.00;62223.63;4979376;28;20292;-84
2024/01/24 08:31:54;;;;;;;6.97;3.60;;;;;;;1.98;100.00;62199.06;4971717;28;20862;-83
2024/01/24 08:34:22;;;;;;;4.25;3.22;;;;;;;2.11;100.00;62212.38;4964967;28;20247;-81
2024/01/24 08:36:48;;;;;;;4.53;4.13;;;;;;;1.96;100.00;62199.50;4975305;29;20188;-85
2024/01/24 08:39:15;;;;;;;5.90;4.38;;;;;;;2.15;100.00;62221.00;4971171;29;20209;-83
2024/01/24 08:41:42;;;;;;;6.75;4.35;;;;;;;1.95;100.00;62200.97;4964096;29;20239;-85
2024/01/24 08:44:11;;;;;;;5.63;4.00;;;;;;;1.97;100.00;62200.00;4961569;29;20198;-84
2024/01/24 08:46:37;;;;;;;6.20;4.35;;;;;;;2.04;100.00;62212.22;4964852;29;20207;-83
2024/01/24 08:49:04;;;;;;;3.70;3.35;;;;;;;2.05;100.00;62205.72;4962890;29;20200;-84
2024/01/24 08:51:31;;;;;;;5.50;3.92;;;;;;;1.95;100.00;62198.47;4968315;29;20245;-83
2024/01/24 08:53:59;;;;;;;9.07;4.15;;;;;;;1.87;100.00;62190.25;4969296;29;20269;-84
2024/01/24 08:56:26;;;;;;;6.43;4.32;;;;;;;1.97;100.00;62203.03;4955518;29;20202;-82
2024/01/24 08:58:53;;;;;;;9.30;4.38;;;;;;;1.96;100.00;62199.50;4969142;28;20209;-79
2024/01/24 09:01:21;;;;;;;6.68;4.15;;;;;;;1.98;100.00;62198.53;4968863;28;20469;-79
2024/01/24 09:03:49;;;;;;;7.30;4.68;;;;;;;1.97;100.00;62200.00;4993111;28;20207;-81
2024/01/24 09:06:16;;;;;;;5.78;4.95;;;;;;;2.04;100.00;62205.19;4983532;28;20234;-79
2024/01/24 09:08:44;;;;;;;8.10;4.75;;;;;;;2.01;100.00;62204.13;4970671;28;20204;-82
2024/01/24 09:11:11;;;;;;;7.18;4.47;;;;;;;2.08;100.00;62209.31;4969792;28;20239;-78
2024/01/24 09:13:38;;;;;;;5.70;3.33;;;;;;;2.05;100.00;62210.75;4966131;28;20237;-79
2024/01/24 09:16:05;;;;;;;3.03;2.67;;;;;;;2.06;100.00;62206.75;4962926;29;20560;-78
2024/01/24 09:18:33;;;;;;;4.55;3.97;;;;;;;2.10;100.00;62215.88;4972515;29;20216;-79
2024/01/24 09:21:00;;;;;;;5.32;3.38;;;;;;;2.01;100.00;62209.13;4970141;28;20224;-80
2024/01/24 09:23:28;;;;;;;5.90;3.80;;;;;;;2.14;100.00;62223.00;4975558;29;20197;-79
2024/01/24 09:25:55;;;;;;;6.55;4.65;;;;;;;2.20;100.00;62223.63;4962534;29;20379;-81
2024/01/24 09:28:22;;;;;;;6.20;4.93;;;;;;;2.17;100.00;62223.56;4960762;29;20267;-80
2024/01/24 09:30:49;;;;;;;12.68;4.03;;;;;;;2.19;100.00;62220.59;4959847;28;20225;-80
2024/01/24 09:33:16;;;;;;;11.18;5.63;;;;;;;2.24;100.00;62223.22;4961113;29;20256;-80
2024/01/24 09:35:46;;;;;;;8.73;4.85;;;;;;;2.38;100.00;62241.59;4974543;28;20228;-81
2024/01/24 09:38:13;;;;;;;3.97;3.35;;;;;;;2.25;100.00;62228.75;4970456;28;20474;-80
2024/01/24 09:40:40;;;;;;;8.48;4.28;;;;;;;2.20;100.00;62224.16;4974913;28;20220;-78
2024/01/24 09:43:08;;;;;;;7.10;5.55;;;;;;;2.25;100.00;62224.25;4951407;29;20417;-78
2024/01/24 09:45:35;;;;;;;8.70;3.92;;;;;;;2.31;100.00;62234.94;4952807;29;20237;-78
2024/01/24 09:48:02;;;;;;;5.95;5.35;;;;;;;2.38;100.00;62247.16;4967089;28;20208;-77
2024/01/24 09:50:29;;;;;;;8.70;4.88;;;;;;;2.40;100.00;62243.66;4957633;29;20229;-81
2024/01/24 09:52:57;;;;;;;9.23;5.40;;;;;;;2.41;100.00;62242.69;4973264;29;20233;-79
2024/01/24 09:55:24;;;;;;;11.98;4.53;;;;;;;2.38;100.00;62239.59;4961031;29;20253;-80
2024/01/24 09:57:51;;;;;;;6.10;4.90;;;;;;;2.29;100.00;62233.41;4971714;29;20594;-81
2024/01/24 10:00:18;;;;;;;7.13;5.00;;;;;;;2.33;100.00;62236.97;4975150;28;20229;-79
2024/01/24 10:02:45;;;;;;;7.78;4.72;;;;;;;2.29;100.00;62232.88;4961696;28;20200;-79
2024/01/24 10:05:14;;;;;;;5.85;4.93;;;;;;;2.35;100.00;62239.03;4967422;28;20233;-80
2024/01/24 10:07:42;;;;;;;5.25;4.55;;;;;;;2.40;100.00;62241.66;4958649;29;20198;-80
2024/01/24 10:10:12;;;;;;;6.60;4.55;;;;;;;2.45;100.00;62249.28;4958370;29;20403;-80
2024/01/24 10:12:41;;;;;;;5.60;3.90;;;;;;;2.53;100.00;62255.00;4967643;28;20288;-80
2024/01/24 10:15:09;;;;;;;6.65;4.47;;;;;;;2.51;100.00;62254.94;4963570;29;20255;-81
2024/01/24 10:17:36;;;;;;;5.82;4.72;;;;;;;2.47;100.00;62245.81;4959480;29;20221;-79
2024/01/24 10:20:06;;;;;;;4.80;4.18;;;;;;;2.51;100.00;62252.94;4969564;28;20220;-79
2024/01/24 10:22:33;;;;;;;11.30;4.00;;;;;;;2.44;100.00;62250.25;4956112;29;20562;-78
2024/01/24 10:25:01;;;;;;;8.63;6.35;;;;;;;2.47;100.00;62251.34;4959488;28;20225;-79
2024/01/24 10:27:29;;;;;;;8.88;6.30;;;;;;;2.44;100.00;62250.25;4958046;29;20220;-79
2024/01/24 10:29:56;;;;;;;10.10;6.18;;;;;;;2.71;100.00;62278.03;4959190;29;20248;-81
2024/01/24 10:32:23;;;;;;;7.75;4.90;;;;;;;2.79;100.00;62283.72;4954216;28;20216;-79
2024/01/24 10:34:50;;;;;;;8.18;5.80;;;;;;;2.89;100.00;62294.00;4964590;28;20251;-81
2024/01/24 10:37:18;;;;;;;8.85;5.95;;;;;;;2.90;100.00;62298.03;4963770;29;20196;-83
2024/01/24 10:39:45;;;;;;;7.43;5.25;;;;;;;2.96;100.00;62301.19;4975109;28;20302;-80
2024/01/24 10:42:14;;;;;;;7.07;5.68;;;;;;;3.04;100.00;62307.41;4974392;28;20248;-80
2024/01/24 10:44:43;;;;;;;7.35;5.38;;;;;;;2.89;100.00;62299.00;4963391;28;20236;-79
2024/01/24 10:47:10;;;;;;;8.38;6.20;;;;;;;2.72;100.00;62282.06;4951852;29;20227;-79
2024/01/24 10:49:37;;;;;;;11.52;5.43;;;;;;;2.53;100.00;62259.50;4952144;29;20248;-79
2024/01/24 10:52:05;;;;;;;15.05;7.72;;;;;;;2.52;100.00;62259.00;4958348;28;20223;-80
2024/01/24 10:54:32;;;;;;;10.32;6.55;;;;;;;2.74;100.00;62278.59;4962043;28;20232;-80
2024/01/24 10:56:59;;;;;;;8.73;5.50;;;;;;;2.67;100.00;62269.41;4956887;29;20818;-79
2024/01/24 10:59:26;;;;;;;16.63;8.25;;;;;;;2.92;100.00;62295.06;4962714;28;20224;-81
2024/01/24 11:01:54;;;;;;;11.18;7.13;;;;;;;2.90;100.00;62298.03;4971770;28;20211;-79
2024/01/24 11:04:22;;;;;;;16.10;7.20;;;;;;;2.90;100.00;62298.03;4964324;29;20241;-80
2024/01/24 11:06:51;;;;;;;9.20;7.13;;;;;;;3.02;100.00;62304.84;4958422;28;20519;-79
2024/01/24 11:09:23;;;;;;;10.63;7.50;;;;;;;2.98;100.00;62301.25;4960215;28;20208;-79
2024/01/24 11:11:52;;;;;;;11.13;6.88;;;;;;;2.92;100.00;62300.09;4962558;28;20205;-81
2024/01/24 11:14:29;;;;;;;8.98;7.47;;;;;;;3.13;100.00;62321.69;4956719;29;20234;-79
2024/01/24 11:16:58;;;;;;;8.73;7.32;;;;;;;3.11;100.00;62319.63;4953422;29;20197;-80
2024/01/24 11:19:26;;;;;;;9.15;4.72;;;;;;;3.09;100.00;62317.56;4961616;29;20213;-78
2024/01/24 11:21:54;;;;;;;9.55;7.05;;;;;;;2.63;100.00;62264.75;4963239;29;20201;-78
2024/01/24 11:24:48;;;;;;;12.77;7.25;;;;;;;3.02;100.00;62305.34;4960940;28;20232;-81
2024/01/24 11:27:32;;;;;;;8.40;5.93;;;;;;;3.04;100.00;62309.41;4953635;28;20291;-81
2024/01/24 11:30:01;;;;;;;8.80;6.30;;;;;;;3.20;100.00;62326.38;4961925;29;20224;-82
2024/01/24 11:33:07;;;;;;;11.23;7.05;;;;;;;3.24;100.00;62330.50;4969615;28;20251;-80
2024/01/24 11:35:38;;;;;;;5.38;4.85;;;;;;;3.28;98.34;62334.06;4967074;28;20235;-82